Coalmont, Tennessee
Current Conditions -  °F | °C
As of 7:35 AM on Friday 28 Nov 2014 (Local Time) from KBGF Reporting Station
Clear Clear  
Wind Chill: 21°   Ceiling: Unl
Heat Index: 21°   Visibility: 8mi
Dew Point: 21°   Wind: 3mph
Humidity: 100%   Direction: 110°ESE
Pressure: 30.43"   Gusts: NA
Location:  35.34°N, 85.7°W
Report Text: KBGF 281335Z AUTO 11003KT 8SM CLR M06/M06 A3043 RMK
Loading
Personal Weather Stations






























Interactive Weather Map New forecast layout! Learn more

10-Day Weather Forecast

Advertisements
Track Severe Weather on mobile